Time;durP1;ratioP1;P1;durP2;ratioP2;P2;SDS_P1;SDS_P2;PMS_P1;PMS_P2;Temp;Humidity;BMP_temperature;BMP_pressure;BME280_temperature;BME280_humidity;BME280_pressure;Samples;Min_cycle;Max_cycle;Signal;HPM_P1;HPM_P2
2023/09/05 00:01:09;;;;;;;7.47;2.60;;;;;;;;;;5021061;28;20808;-59
2023/09/05 00:03:35;;;;;;;6.03;2.70;;;;;;;;;;5025869;28;20430;-59
2023/09/05 00:06:00;;;;;;;5.80;2.70;;;;;;;;;;5025881;28;20461;-59
2023/09/05 00:08:26;;;;;;;6.13;2.83;;;;;;;;;;5023570;28;20431;-59
2023/09/05 00:10:51;;;;;;;7.57;2.90;;;;;;;;;;5037642;28;20463;-59
2023/09/05 00:13:16;;;;;;;5.07;2.70;;;;;;;;;;5034844;28;20433;-59
2023/09/05 00:15:41;;;;;;;6.80;2.67;;;;;;;;;;5029808;28;20765;-59
2023/09/05 00:18:07;;;;;;;6.27;2.60;;;;;;;;;;5031612;28;20414;-59
2023/09/05 00:20:32;;;;;;;10.07;3.00;;;;;;;;;;5024770;28;20403;-59
2023/09/05 00:22:57;;;;;;;6.80;3.10;;;;;;;;;;5023300;28;20834;-59
2023/09/05 00:25:23;;;;;;;5.13;3.03;;;;;;;;;;5021564;28;20418;-59
2023/09/05 00:27:48;;;;;;;5.23;3.20;;;;;;;;;;5036034;28;20418;-58
2023/09/05 00:30:14;;;;;;;6.77;3.00;;;;;;;;;;5034169;28;20820;-59
2023/09/05 00:32:40;;;;;;;6.22;3.28;;;;;;;;;;5027667;28;20413;-59
2023/09/05 00:35:06;;;;;;;5.82;2.90;;;;;;;;;;5033248;28;20417;-59
2023/09/05 00:37:31;;;;;;;6.17;3.40;;;;;;;;;;5032241;28;20409;-59
2023/09/05 00:39:56;;;;;;;5.93;3.07;;;;;;;;;;5022231;28;20403;-59
2023/09/05 00:42:22;;;;;;;6.00;3.70;;;;;;;;;;5022522;28;20422;-59
2023/09/05 00:44:48;;;;;;;6.93;3.70;;;;;;;;;;5024034;28;20441;-59
2023/09/05 00:47:13;;;;;;;5.88;3.67;;;;;;;;;;5032064;28;20408;-59
2023/09/05 00:49:41;;;;;;;5.93;3.40;;;;;;;;;;5029139;28;20494;-59
2023/09/05 00:52:07;;;;;;;6.10;3.80;;;;;;;;;;5031154;28;20459;-59
2023/09/05 00:54:35;;;;;;;6.55;3.65;;;;;;;;;;5033323;28;20419;-59
2023/09/05 00:57:01;;;;;;;6.25;3.65;;;;;;;;;;5027809;28;21567;-60
2023/09/05 00:59:26;;;;;;;5.63;3.60;;;;;;;;;;5035189;28;20440;-59
2023/09/05 01:01:51;;;;;;;5.30;3.10;;;;;;;;;;5036699;28;20542;-59
2023/09/05 01:04:16;;;;;;;4.97;3.45;;;;;;;;;;5030977;28;20434;-59
2023/09/05 01:06:46;;;;;;;5.68;3.40;;;;;;;;;;5029833;28;20583;-59
2023/09/05 01:09:16;;;;;;;5.05;3.22;;;;;;;;;;5033969;28;20446;-59
2023/09/05 01:11:41;;;;;;;5.22;3.40;;;;;;;;;;5028310;28;20394;-59
2023/09/05 01:14:07;;;;;;;4.93;3.30;;;;;;;;;;5026292;28;20439;-59
2023/09/05 01:16:32;;;;;;;5.53;3.50;;;;;;;;;;5032406;28;20399;-59
2023/09/05 01:19:01;;;;;;;6.00;3.43;;;;;;;;;;5031793;28;20490;-59
2023/09/05 01:21:30;;;;;;;4.80;3.15;;;;;;;;;;5025212;28;20741;-59
2023/09/05 01:24:08;;;;;;;6.90;3.13;;;;;;;;;;5032343;28;20920;-59
2023/09/05 01:26:33;;;;;;;5.25;3.58;;;;;;;;;;5029626;28;20464;-59
2023/09/05 01:28:59;;;;;;;5.83;3.50;;;;;;;;;;5022891;28;20537;-59
2023/09/05 01:31:24;;;;;;;6.23;3.47;;;;;;;;;;5019645;28;20540;-59
2023/09/05 01:33:49;;;;;;;6.57;3.60;;;;;;;;;;5021307;28;20430;-59
2023/09/05 01:36:15;;;;;;;6.07;3.40;;;;;;;;;;5023313;28;20420;-59
2023/09/05 01:38:40;;;;;;;6.22;3.13;;;;;;;;;;5021804;28;20442;-59
2023/09/05 01:41:06;;;;;;;5.60;3.50;;;;;;;;;;5020753;28;20408;-59
2023/09/05 01:43:31;;;;;;;6.43;2.90;;;;;;;;;;5035141;28;20966;-59
2023/09/05 01:45:56;;;;;;;4.93;2.90;;;;;;;;;;5019057;28;20397;-59
2023/09/05 01:48:21;;;;;;;5.03;3.07;;;;;;;;;;5015027;28;20386;-59
2023/09/05 01:50:47;;;;;;;5.93;2.90;;;;;;;;;;5032756;28;20900;-59
2023/09/05 01:53:13;;;;;;;5.50;2.85;;;;;;;;;;5030820;28;20521;-59
2023/09/05 01:55:38;;;;;;;5.50;3.10;;;;;;;;;;5032235;28;20414;-59
2023/09/05 01:58:03;;;;;;;6.10;3.03;;;;;;;;;;5030581;28;20465;-60
2023/09/05 02:00:28;;;;;;;5.47;2.70;;;;;;;;;;5027237;28;20905;-59
2023/09/05 02:02:54;;;;;;;3.93;2.53;;;;;;;;;;5023722;28;20397;-59
2023/09/05 02:05:19;;;;;;;5.33;2.60;;;;;;;;;;5033943;28;20435;-59
2023/09/05 02:07:44;;;;;;;7.43;3.10;;;;;;;;;;5029689;28;20418;-59
2023/09/05 02:10:10;;;;;;;4.97;2.53;;;;;;;;;;5033420;28;20726;-59
2023/09/05 02:12:35;;;;;;;5.67;2.70;;;;;;;;;;5031930;28;20407;-59
2023/09/05 02:15:00;;;;;;;5.07;3.00;;;;;;;;;;5028300;28;20414;-59
2023/09/05 02:17:30;;;;;;;6.20;2.97;;;;;;;;;;5031591;28;20403;-59
2023/09/05 02:19:56;;;;;;;6.43;2.70;;;;;;;;;;5038489;28;20753;-59
2023/09/05 02:22:21;;;;;;;4.63;2.80;;;;;;;;;;5017746;28;20382;-59
2023/09/05 02:24:46;;;;;;;4.93;2.90;;;;;;;;;;5008242;28;20413;-59
2023/09/05 02:27:11;;;;;;;4.47;2.80;;;;;;;;;;5004543;28;20425;-59
2023/09/05 02:29:37;;;;;;;4.50;2.90;;;;;;;;;;5004939;28;20415;-59
2023/09/05 02:32:02;;;;;;;5.90;3.20;;;;;;;;;;5003944;28;20421;-60
2023/09/05 02:34:27;;;;;;;4.93;3.30;;;;;;;;;;4999993;28;20393;-59
2023/09/05 02:36:54;;;;;;;5.80;3.30;;;;;;;;;;5001733;28;20419;-59
2023/09/05 02:39:20;;;;;;;6.05;3.20;;;;;;;;;;4980747;28;20931;-59
2023/09/05 02:41:45;;;;;;;6.00;3.10;;;;;;;;;;4981065;28;20506;-59
2023/09/05 02:44:11;;;;;;;5.28;3.50;;;;;;;;;;4988855;28;20408;-59
2023/09/05 02:46:36;;;;;;;5.00;3.35;;;;;;;;;;4991911;28;20429;-59
2023/09/05 02:49:01;;;;;;;5.25;3.40;;;;;;;;;;4991678;28;20934;-60
2023/09/05 02:51:27;;;;;;;5.47;3.30;;;;;;;;;;4990787;28;20950;-59
2023/09/05 02:53:56;;;;;;;6.03;3.27;;;;;;;;;;4995034;28;20425;-59
2023/09/05 02:56:21;;;;;;;5.72;3.28;;;;;;;;;;4992326;28;20770;-59
2023/09/05 02:58:47;;;;;;;6.13;3.30;;;;;;;;;;4991843;28;20414;-59
2023/09/05 03:01:13;;;;;;;7.22;3.65;;;;;;;;;;4989405;28;20422;-59
2023/09/05 03:03:38;;;;;;;6.20;3.70;;;;;;;;;;4984245;28;20675;-59
2023/09/05 03:06:11;;;;;;;5.40;3.60;;;;;;;;;;4982683;28;20873;-59
2023/09/05 03:08:37;;;;;;;6.30;3.80;;;;;;;;;;5001181;28;20420;-59
2023/09/05 03:11:02;;;;;;;5.22;3.40;;;;;;;;;;5004176;28;20413;-60
2023/09/05 03:13:27;;;;;;;4.77;3.40;;;;;;;;;;5007632;28;20473;-59
2023/09/05 03:15:52;;;;;;;8.10;3.80;;;;;;;;;;5000709;28;20529;-59
2023/09/05 03:18:18;;;;;;;7.20;4.03;;;;;;;;;;5010602;28;20763;-59
2023/09/05 03:20:43;;;;;;;5.30;3.80;;;;;;;;;;5006006;28;20735;-59
2023/09/05 03:23:08;;;;;;;7.27;3.50;;;;;;;;;;5021816;28;20482;-59
2023/09/05 03:25:34;;;;;;;5.43;3.70;;;;;;;;;;5030169;28;20405;-59
2023/09/05 03:27:59;;;;;;;6.07;3.43;;;;;;;;;;5027646;28;20541;-59
2023/09/05 03:30:24;;;;;;;7.80;3.53;;;;;;;;;;5029116;28;20461;-59
2023/09/05 03:32:49;;;;;;;5.30;3.63;;;;;;;;;;5034367;28;20405;-59
2023/09/05 03:35:15;;;;;;;6.40;3.77;;;;;;;;;;5033465;28;20444;-59
2023/09/05 03:37:40;;;;;;;4.90;3.30;;;;;;;;;;5040077;28;20465;-59
2023/09/05 03:40:07;;;;;;;5.33;3.70;;;;;;;;;;5035307;28;20416;-59
2023/09/05 03:42:32;;;;;;;5.03;3.63;;;;;;;;;;5030328;28;20500;-59
2023/09/05 03:44:57;;;;;;;6.50;3.60;;;;;;;;;;5017115;28;20907;-59
2023/09/05 03:47:23;;;;;;;5.63;3.53;;;;;;;;;;5021881;28;20410;-59
2023/09/05 03:49:48;;;;;;;5.43;3.73;;;;;;;;;;4987476;28;21036;-59
2023/09/05 03:52:13;;;;;;;6.43;3.30;;;;;;;;;;4983946;28;20612;-59
2023/09/05 03:54:39;;;;;;;5.00;3.57;;;;;;;;;;4984813;28;20449;-59
2023/09/05 03:57:04;;;;;;;5.23;3.50;;;;;;;;;;4993751;28;20893;-59
2023/09/05 03:59:29;;;;;;;5.50;3.60;;;;;;;;;;4992475;28;20406;-59
2023/09/05 04:01:55;;;;;;;4.40;3.40;;;;;;;;;;4990485;28;20426;-59
2023/09/05 04:04:22;;;;;;;5.75;3.67;;;;;;;;;;4989702;28;22379;-59
2023/09/05 04:06:47;;;;;;;5.77;3.80;;;;;;;;;;4995129;28;20414;-60
2023/09/05 04:09:12;;;;;;;5.50;3.53;;;;;;;;;;4990843;28;20413;-59
2023/09/05 04:11:37;;;;;;;5.60;3.60;;;;;;;;;;4984606;28;20402;-59
2023/09/05 04:14:03;;;;;;;6.20;3.10;;;;;;;;;;4984729;28;20426;-59
2023/09/05 04:16:28;;;;;;;6.37;3.60;;;;;;;;;;4983128;28;20838;-59
2023/09/05 04:18:53;;;;;;;5.93;3.70;;;;;;;;;;4990219;28;20426;-59
2023/09/05 04:21:19;;;;;;;5.80;3.87;;;;;;;;;;4990439;28;20414;-59
2023/09/05 04:23:44;;;;;;;6.88;4.10;;;;;;;;;;4992412;28;20458;-59
2023/09/05 04:26:10;;;;;;;5.43;3.63;;;;;;;;;;4990435;28;21012;-59
2023/09/05 04:28:35;;;;;;;6.33;3.87;;;;;;;;;;4989648;28;20985;-59
2023/09/05 04:31:06;;;;;;;5.27;3.40;;;;;;;;;;4995653;28;20505;-60
2023/09/05 04:33:37;;;;;;;5.18;3.70;;;;;;;;;;4984735;28;20937;-59
2023/09/05 04:36:02;;;;;;;5.45;3.63;;;;;;;;;;4980302;28;20797;-59
2023/09/05 04:38:27;;;;;;;6.50;4.20;;;;;;;;;;4985794;28;20400;-59
2023/09/05 04:40:53;;;;;;;6.20;3.93;;;;;;;;;;4995634;28;21093;-59
2023/09/05 04:43:18;;;;;;;7.53;3.70;;;;;;;;;;4988130;28;20418;-59
2023/09/05 04:45:52;;;;;;;4.93;3.43;;;;;;;;;;5005207;28;20411;-59
2023/09/05 04:48:17;;;;;;;6.85;3.60;;;;;;;;;;4995101;28;20465;-59
2023/09/05 04:50:42;;;;;;;5.60;3.20;;;;;;;;;;4990642;28;20430;-59
2023/09/05 04:53:07;;;;;;;7.00;3.90;;;;;;;;;;4989842;28;20422;-59
2023/09/05 04:55:33;;;;;;;5.43;3.40;;;;;;;;;;4989906;28;20405;-59
2023/09/05 04:57:58;;;;;;;5.53;3.60;;;;;;;;;;4983806;28;20442;-59
2023/09/05 05:00:25;;;;;;;5.43;3.30;;;;;;;;;;4981483;28;20399;-59
2023/09/05 05:02:51;;;;;;;5.95;3.92;;;;;;;;;;4986373;28;20406;-59
2023/09/05 05:05:16;;;;;;;6.60;3.40;;;;;;;;;;4992414;28;20426;-59
2023/09/05 05:07:41;;;;;;;7.20;3.50;;;;;;;;;;4990349;28;20420;-59
2023/09/05 05:10:07;;;;;;;4.93;3.50;;;;;;;;;;4988828;28;20421;-59
2023/09/05 05:12:32;;;;;;;6.07;3.33;;;;;;;;;;4995556;28;20884;-59
2023/09/05 05:14:58;;;;;;;5.60;3.50;;;;;;;;;;4991649;28;20505;-59
2023/09/05 05:17:23;;;;;;;5.57;3.53;;;;;;;;;;4987377;28;20486;-59
2023/09/05 05:19:48;;;;;;;6.00;3.30;;;;;;;;;;4984594;28;20403;-59
2023/09/05 05:22:14;;;;;;;6.83;3.50;;;;;;;;;;4982398;28;21009;-59
2023/09/05 05:24:39;;;;;;;5.47;3.30;;;;;;;;;;4981137;28;20443;-59
2023/09/05 05:27:04;;;;;;;5.80;3.20;;;;;;;;;;4989575;28;20457;-59
2023/09/05 05:29:32;;;;;;;6.40;3.13;;;;;;;;;;4991943;28;20461;-59
2023/09/05 05:31:58;;;;;;;4.73;2.90;;;;;;;;;;4989162;28;20405;-59
2023/09/05 05:34:23;;;;;;;5.85;2.92;;;;;;;;;;4988650;28;20407;-59
2023/09/05 05:36:48;;;;;;;5.10;2.80;;;;;;;;;;5009813;28;20418;-59
2023/09/05 05:39:14;;;;;;;6.17;2.80;;;;;;;;;;5012242;28;20738;-60
2023/09/05 05:41:39;;;;;;;4.83;2.57;;;;;;;;;;5025768;28;20402;-59
2023/09/05 05:44:05;;;;;;;5.13;2.70;;;;;;;;;;5032222;28;20427;-60
2023/09/05 05:46:31;;;;;;;4.40;2.53;;;;;;;;;;5024221;28;20404;-60
2023/09/05 05:48:58;;;;;;;5.70;2.78;;;;;;;;;;5021411;28;20486;-60
2023/09/05 05:51:23;;;;;;;5.10;2.60;;;;;;;;;;5034844;28;20390;-60
2023/09/05 05:53:49;;;;;;;5.23;2.60;;;;;;;;;;5029541;28;20418;-60
2023/09/05 05:56:15;;;;;;;5.23;2.87;;;;;;;;;;5033351;28;20904;-60
2023/09/05 05:58:40;;;;;;;4.20;2.47;;;;;;;;;;5032129;28;20480;-60
2023/09/05 06:01:07;;;;;;;4.23;2.70;;;;;;;;;;5028250;28;20517;-59
2023/09/05 06:03:35;;;;;;;4.30;2.50;;;;;;;;;;5028777;28;20441;-60
2023/09/05 06:06:00;;;;;;;3.87;2.40;;;;;;;;;;5023831;28;20926;-59
2023/09/05 06:08:25;;;;;;;5.43;2.83;;;;;;;;;;5025202;28;20400;-60
2023/09/05 06:10:51;;;;;;;4.60;2.67;;;;;;;;;;5030947;28;20563;-60
2023/09/05 06:13:16;;;;;;;4.93;2.40;;;;;;;;;;5031540;28;20437;-60
2023/09/05 06:15:41;;;;;;;4.90;2.60;;;;;;;;;;5031465;28;20408;-60
2023/09/05 06:18:08;;;;;;;3.63;2.47;;;;;;;;;;5027775;28;20892;-60
2023/09/05 06:20:34;;;;;;;4.93;2.80;;;;;;;;;;5033122;28;20899;-60
2023/09/05 06:23:00;;;;;;;5.35;2.58;;;;;;;;;;5035339;28;20452;-60
2023/09/05 06:25:25;;;;;;;4.77;2.37;;;;;;;;;;5028980;28;20949;-59
2023/09/05 06:27:50;;;;;;;3.57;2.20;;;;;;;;;;5027105;28;21077;-60
2023/09/05 06:30:16;;;;;;;4.33;2.70;;;;;;;;;;5026756;28;20416;-60
2023/09/05 06:32:41;;;;;;;5.20;2.20;;;;;;;;;;5031385;28;20419;-60
2023/09/05 06:35:07;;;;;;;4.47;2.57;;;;;;;;;;5026591;28;20434;-60
2023/09/05 06:37:36;;;;;;;4.87;2.50;;;;;;;;;;5024437;28;21051;-60
2023/09/05 06:40:05;;;;;;;4.35;2.63;;;;;;;;;;5009893;28;20520;-61
2023/09/05 06:42:30;;;;;;;6.17;2.80;;;;;;;;;;5012658;28;20389;-60
2023/09/05 06:44:55;;;;;;;5.17;2.83;;;;;;;;;;5015692;28;20414;-57
2023/09/05 06:47:20;;;;;;;4.87;2.40;;;;;;;;;;5029349;28;20386;-59
2023/09/05 06:49:46;;;;;;;5.70;2.20;;;;;;;;;;5038202;28;20437;-59
2023/09/05 06:52:11;;;;;;;3.67;2.37;;;;;;;;;;5043210;28;20740;-59
2023/09/05 06:54:36;;;;;;;3.63;2.30;;;;;;;;;;5037314;28;20433;-59
2023/09/05 06:57:02;;;;;;;4.17;2.20;;;;;;;;;;5026615;28;20415;-59
2023/09/05 06:59:27;;;;;;;4.50;2.20;;;;;;;;;;5032477;28;20768;-59
2023/09/05 07:01:52;;;;;;;5.50;2.50;;;;;;;;;;5034677;28;20800;-59
2023/09/05 07:04:18;;;;;;;3.53;2.33;;;;;;;;;;5028468;28;20406;-59
2023/09/05 07:06:45;;;;;;;4.63;2.40;;;;;;;;;;5032348;28;20511;-59
2023/09/05 07:09:10;;;;;;;5.23;2.70;;;;;;;;;;5032169;28;20409;-60
2023/09/05 07:11:35;;;;;;;4.15;2.13;;;;;;;;;;5022244;28;20407;-59
2023/09/05 07:14:01;;;;;;;4.97;2.40;;;;;;;;;;5016988;28;20415;-61
2023/09/05 07:16:26;;;;;;;4.70;2.20;;;;;;;;;;5023098;28;20460;-59
2023/09/05 07:18:53;;;;;;;5.33;2.50;;;;;;;;;;5021441;28;20400;-59
2023/09/05 07:21:18;;;;;;;4.32;2.45;;;;;;;;;;5033980;28;20429;-59
2023/09/05 07:23:43;;;;;;;5.32;2.45;;;;;;;;;;5028467;28;20906;-59
2023/09/05 07:26:09;;;;;;;4.63;2.50;;;;;;;;;;5017721;28;20494;-59
2023/09/05 07:28:34;;;;;;;4.60;2.57;;;;;;;;;;5015892;28;20414;-59
2023/09/05 07:31:00;;;;;;;4.57;2.50;;;;;;;;;;5020452;28;20403;-59
2023/09/05 07:33:25;;;;;;;6.80;2.77;;;;;;;;;;5020949;28;20488;-59
2023/09/05 07:35:50;;;;;;;4.03;2.60;;;;;;;;;;5021562;28;20408;-59
2023/09/05 07:38:17;;;;;;;4.93;2.67;;;;;;;;;;5022564;28;20401;-59
2023/09/05 07:40:42;;;;;;;3.83;2.50;;;;;;;;;;5024322;28;20403;-59
2023/09/05 07:43:08;;;;;;;5.40;2.63;;;;;;;;;;5022346;28;20456;-59
2023/09/05 07:45:33;;;;;;;3.90;2.30;;;;;;;;;;5019539;28;20905;-59
2023/09/05 07:47:58;;;;;;;6.07;2.20;;;;;;;;;;5024749;28;20411;-59
2023/09/05 07:50:24;;;;;;;3.77;2.17;;;;;;;;;;5029564;28;20402;-59
2023/09/05 07:52:49;;;;;;;5.20;2.30;;;;;;;;;;5021006;28;20395;-59
2023/09/05 07:55:14;;;;;;;4.83;2.17;;;;;;;;;;5028577;28;20914;-59
2023/09/05 07:57:40;;;;;;;4.87;2.30;;;;;;;;;;5022305;28;20918;-59
2023/09/05 08:00:14;;;;;;;4.10;2.00;;;;;;;;;;5019213;28;20963;-60
2023/09/05 08:02:39;;;;;;;4.28;2.00;;;;;;;;;;5016954;28;20409;-59
2023/09/05 08:05:06;;;;;;;5.63;2.27;;;;;;;;;;5020909;28;20408;-60
2023/09/05 08:07:32;;;;;;;3.92;2.10;;;;;;;;;;5012236;28;20396;-59
2023/09/05 08:09:57;;;;;;;3.00;1.90;;;;;;;;;;5012585;28;20407;-59
2023/09/05 08:12:22;;;;;;;4.40;2.10;;;;;;;;;;5012082;28;20898;-59
2023/09/05 08:14:47;;;;;;;5.50;2.10;;;;;;;;;;5004902;28;20505;-59
2023/09/05 08:17:13;;;;;;;4.63;1.83;;;;;;;;;;4992696;28;20755;-59
2023/09/05 08:19:38;;;;;;;3.93;1.63;;;;;;;;;;4993102;28;20407;-59
2023/09/05 08:22:05;;;;;;;4.10;1.73;;;;;;;;;;4991709;28;20412;-60
2023/09/05 08:24:30;;;;;;;4.45;2.05;;;;;;;;;;4992767;28;20481;-59
2023/09/05 08:26:56;;;;;;;4.40;1.93;;;;;;;;;;4991978;28;20863;-59
2023/09/05 08:29:23;;;;;;;2.37;1.60;;;;;;;;;;4996297;28;20428;-59
2023/09/05 08:31:48;;;;;;;4.18;1.83;;;;;;;;;;5012435;28;20393;-59
2023/09/05 08:34:14;;;;;;;2.57;1.70;;;;;;;;;;5011067;28;20487;-59
2023/09/05 08:36:39;;;;;;;3.53;1.63;;;;;;;;;;5012203;28;20421;-59
2023/09/05 08:39:04;;;;;;;3.78;1.73;;;;;;;;;;5010367;28;20447;-60
2023/09/05 08:41:30;;;;;;;3.55;1.67;;;;;;;;;;5010644;28;20813;-59
2023/09/05 08:43:56;;;;;;;4.93;2.17;;;;;;;;;;5011571;28;20400;-59
2023/09/05 08:46:21;;;;;;;4.63;1.77;;;;;;;;;;5011417;28;20899;-59
2023/09/05 08:48:47;;;;;;;4.17;1.80;;;;;;;;;;5011157;28;20405;-59
2023/09/05 08:51:13;;;;;;;5.47;1.77;;;;;;;;;;5011607;28;20403;-59
2023/09/05 08:53:41;;;;;;;4.93;1.80;;;;;;;;;;5011728;28;20413;-59
2023/09/05 08:56:06;;;;;;;4.05;1.95;;;;;;;;;;5010788;28;20393;-59
2023/09/05 08:58:31;;;;;;;4.93;1.80;;;;;;;;;;5010449;28;20401;-59
2023/09/05 09:00:56;;;;;;;4.77;1.60;;;;;;;;;;5010487;28;20515;-59
2023/09/05 09:03:22;;;;;;;4.83;1.80;;;;;;;;;;5016267;28;20403;-59
2023/09/05 09:05:49;;;;;;;5.82;1.83;;;;;;;;;;5026401;28;20412;-59
2023/09/05 09:08:15;;;;;;;4.32;1.70;;;;;;;;;;5022092;28;20411;-59
2023/09/05 09:10:41;;;;;;;5.82;1.60;;;;;;;;;;5020999;28;20422;-59
2023/09/05 09:13:13;;;;;;;3.55;1.70;;;;;;;;;;5024016;28;20924;-59
2023/09/05 09:15:39;;;;;;;3.50;1.60;;;;;;;;;;5024827;28;20422;-59
2023/09/05 09:18:06;;;;;;;4.70;1.60;;;;;;;;;;5018343;28;20399;-60
2023/09/05 09:20:31;;;;;;;2.97;1.60;;;;;;;;;;5023083;28;20459;-59
2023/09/05 09:22:56;;;;;;;2.63;1.50;;;;;;;;;;5024387;28;20411;-59
2023/09/05 09:25:22;;;;;;;4.17;1.90;;;;;;;;;;5020490;28;20387;-59
2023/09/05 09:27:51;;;;;;;4.10;2.00;;;;;;;;;;5020784;28;20489;-59
2023/09/05 09:30:16;;;;;;;3.47;1.50;;;;;;;;;;5017365;28;20922;-59
2023/09/05 09:32:41;;;;;;;4.97;1.80;;;;;;;;;;5022044;28;20395;-59
2023/09/05 09:35:07;;;;;;;4.07;1.90;;;;;;;;;;5018175;28;20419;-59
2023/09/05 09:37:33;;;;;;;5.20;1.90;;;;;;;;;;5022144;28;20440;-59
2023/09/05 09:40:00;;;;;;;8.23;2.07;;;;;;;;;;5024117;28;20399;-59
2023/09/05 09:42:25;;;;;;;4.87;1.87;;;;;;;;;;5019593;28;20399;-59
2023/09/05 09:44:52;;;;;;;3.87;1.83;;;;;;;;;;5016777;28;20411;-59
2023/09/05 09:47:17;;;;;;;4.53;1.90;;;;;;;;;;5010317;28;20407;-59
2023/09/05 09:49:45;;;;;;;10.77;1.97;;;;;;;;;;5022095;28;20457;-59
2023/09/05 09:52:11;;;;;;;5.77;1.80;;;;;;;;;;5017822;28;21101;-59
2023/09/05 09:54:36;;;;;;;4.10;1.90;;;;;;;;;;5012586;28;20411;-59
2023/09/05 09:57:04;;;;;;;5.63;1.90;;;;;;;;;;5023695;28;21021;-59
2023/09/05 09:59:35;;;;;;;7.43;1.80;;;;;;;;;;5017780;28;20392;-59
2023/09/05 10:02:01;;;;;;;4.80;2.00;;;;;;;;;;5021286;28;21517;-59
2023/09/05 10:04:26;;;;;;;12.82;2.28;;;;;;;;;;5029633;28;20449;-59
2023/09/05 10:06:51;;;;;;;6.22;1.92;;;;;;;;;;5034465;28;20455;-59
2023/09/05 10:09:17;;;;;;;3.93;1.73;;;;;;;;;;5032794;28;20442;-59
2023/09/05 10:11:42;;;;;;;6.97;1.83;;;;;;;;;;5042398;28;20532;-59
2023/09/05 10:14:07;;;;;;;4.23;1.73;;;;;;;;;;5041295;28;20500;-60
2023/09/05 10:16:32;;;;;;;3.57;1.73;;;;;;;;;;5034493;28;20410;-59
2023/09/05 10:18:58;;;;;;;3.93;1.70;;;;;;;;;;5022163;28;20727;-59
2023/09/05 10:21:25;;;;;;;4.55;1.70;;;;;;;;;;5021532;28;20391;-59
2023/09/05 10:23:50;;;;;;;5.07;1.58;;;;;;;;;;5018134;28;20418;-59
2023/09/05 10:26:16;;;;;;;4.93;1.60;;;;;;;;;;5023916;28;20472;-59
2023/09/05 10:28:41;;;;;;;3.87;1.53;;;;;;;;;;5027123;28;20421;-59
2023/09/05 10:31:12;;;;;;;5.33;1.80;;;;;;;;;;5020423;28;20557;-59
2023/09/05 10:33:38;;;;;;;4.43;1.60;;;;;;;;;;5018829;28;20490;-59
2023/09/05 10:36:04;;;;;;;2.92;1.40;;;;;;;;;;5022977;28;20536;-60
2023/09/05 10:38:30;;;;;;;4.05;1.77;;;;;;;;;;5022604;28;20402;-59
2023/09/05 10:40:55;;;;;;;2.85;1.50;;;;;;;;;;5015740;28;20433;-59
2023/09/05 10:43:22;;;;;;;4.95;1.50;;;;;;;;;;5020782;28;20391;-60
2023/09/05 10:45:53;;;;;;;4.28;1.52;;;;;;;;;;4997625;28;20413;-59
2023/09/05 10:48:33;;;;;;;3.75;1.40;;;;;;;;;;5019456;28;20426;-59
2023/09/05 10:51:10;;;;;;;3.70;1.40;;;;;;;;;;5019363;28;20409;-59
2023/09/05 10:53:37;;;;;;;5.50;1.80;;;;;;;;;;5022850;28;20435;-58
2023/09/05 10:56:03;;;;;;;4.43;1.55;;;;;;;;;;5022524;28;20498;-60
2023/09/05 10:58:34;;;;;;;4.93;1.57;;;;;;;;;;5023173;28;20480;-59
2023/09/05 11:01:00;;;;;;;6.78;1.80;;;;;;;;;;5031970;28;20784;-59
2023/09/05 11:03:26;;;;;;;3.23;1.30;;;;;;;;;;5021634;28;20401;-59
2023/09/05 11:05:52;;;;;;;2.75;1.45;;;;;;;;;;5022758;28;20399;-59
2023/09/05 11:08:18;;;;;;;3.47;1.40;;;;;;;;;;5022085;28;20459;-59
2023/09/05 11:10:44;;;;;;;5.10;1.60;;;;;;;;;;5025361;28;20484;-59
2023/09/05 11:13:11;;;;;;;4.07;1.40;;;;;;;;;;5026216;28;20403;-59
2023/09/05 11:15:37;;;;;;;3.35;1.30;;;;;;;;;;5022996;28;20405;-59
2023/09/05 11:18:05;;;;;;;3.67;1.40;;;;;;;;;;5023623;28;20408;-59
2023/09/05 11:20:39;;;;;;;3.73;1.30;;;;;;;;;;5026333;28;20395;-59
2023/09/05 11:23:10;;;;;;;3.58;1.15;;;;;;;;;;5023373;28;20481;-59
2023/09/05 11:25:42;;;;;;;3.08;1.40;;;;;;;;;;5021970;28;20913;-59
2023/09/05 11:28:07;;;;;;;3.53;1.20;;;;;;;;;;5009345;28;20445;-59
2023/09/05 11:30:35;;;;;;;3.97;1.50;;;;;;;;;;5025661;28;20807;-59
2023/09/05 11:33:01;;;;;;;4.72;1.60;;;;;;;;;;5022101;28;20410;-60
2023/09/05 11:35:30;;;;;;;4.27;1.40;;;;;;;;;;5024318;28;20399;-59
2023/09/05 11:37:57;;;;;;;3.13;1.42;;;;;;;;;;5025760;28;20553;-59
2023/09/05 11:40:25;;;;;;;5.05;1.40;;;;;;;;;;5025511;28;20395;-59
2023/09/05 11:43:00;;;;;;;2.75;1.20;;;;;;;;;;5020918;28;20426;-59
2023/09/05 11:45:25;;;;;;;7.03;1.58;;;;;;;;;;5009146;28;20403;-59
2023/09/05 11:47:51;;;;;;;4.30;1.30;;;;;;;;;;5017756;28;20411;-59
2023/09/05 11:50:16;;;;;;;2.67;1.42;;;;;;;;;;5021655;28;20413;-59
2023/09/05 11:52:43;;;;;;;3.58;1.48;;;;;;;;;;5022713;28;20435;-59
2023/09/05 11:55:10;;;;;;;2.80;1.30;;;;;;;;;;5024631;28;21986;-59
2023/09/05 11:57:36;;;;;;;2.80;1.30;;;;;;;;;;5025487;28;20403;-59
2023/09/05 12:00:01;;;;;;;4.43;1.70;;;;;;;;;;5019347;28;20991;-59
2023/09/05 12:02:26;;;;;;;4.80;1.60;;;;;;;;;;5025274;28;20407;-59
2023/09/05 12:04:52;;;;;;;3.03;1.30;;;;;;;;;;5026223;28;20410;-59
2023/09/05 12:07:22;;;;;;;3.70;1.37;;;;;;;;;;5020893;28;20494;-59
2023/09/05 12:09:47;;;;;;;5.70;1.20;;;;;;;;;;5023490;28;20438;-59
2023/09/05 12:12:13;;;;;;;3.30;1.43;;;;;;;;;;5024537;28;20404;-59
2023/09/05 12:14:54;;;;;;;2.47;1.35;;;;;;;;;;5024209;28;20407;-59
2023/09/05 12:17:21;;;;;;;3.73;1.43;;;;;;;;;;5019123;28;20403;-59
2023/09/05 12:19:48;;;;;;;4.30;1.40;;;;;;;;;;5025013;28;20648;-59
2023/09/05 12:22:19;;;;;;;3.63;1.40;;;;;;;;;;5025430;28;20968;-59
2023/09/05 12:24:44;;;;;;;6.03;1.40;;;;;;;;;;5022853;28;20402;-58
2023/09/05 12:27:12;;;;;;;3.63;1.20;;;;;;;;;;5022322;28;20399;-59
2023/09/05 12:29:40;;;;;;;3.55;1.48;;;;;;;;;;5024110;28;20464;-59
2023/09/05 12:32:05;;;;;;;2.70;1.20;;;;;;;;;;5024463;28;20894;-59
2023/09/05 12:34:31;;;;;;;3.42;1.50;;;;;;;;;;5020332;28;20440;-58
2023/09/05 12:36:56;;;;;;;4.03;1.50;;;;;;;;;;5025070;28;20921;-59
2023/09/05 12:39:21;;;;;;;4.40;1.30;;;;;;;;;;5025241;28;20847;-59
2023/09/05 12:41:46;;;;;;;3.40;1.27;;;;;;;;;;5020485;28;20499;-58
2023/09/05 12:44:12;;;;;;;5.07;1.50;;;;;;;;;;5023402;28;20758;-59
2023/09/05 12:46:37;;;;;;;4.07;1.60;;;;;;;;;;5023718;28;20411;-59
2023/09/05 12:49:03;;;;;;;3.75;1.48;;;;;;;;;;5021266;28;20751;-59
2023/09/05 12:51:30;;;;;;;3.00;1.30;;;;;;;;;;5022303;28;20771;-59
2023/09/05 12:53:56;;;;;;;4.07;1.33;;;;;;;;;;5024888;28;20797;-58
2023/09/05 12:56:23;;;;;;;4.40;1.60;;;;;;;;;;5024116;28;20403;-59
2023/09/05 12:58:48;;;;;;;2.58;1.20;;;;;;;;;;5019642;28;20419;-58
2023/09/05 13:01:14;;;;;;;5.13;1.77;;;;;;;;;;5023773;28;20801;-59
2023/09/05 13:03:40;;;;;;;3.97;1.40;;;;;;;;;;5025012;28;21222;-59
2023/09/05 13:06:05;;;;;;;5.47;1.70;;;;;;;;;;5014293;28;20508;-60
2023/09/05 13:08:32;;;;;;;6.23;1.40;;;;;;;;;;5010880;28;20414;-59
2023/09/05 13:10:57;;;;;;;3.25;1.30;;;;;;;;;;5025130;28;20471;-59
2023/09/05 13:13:22;;;;;;;3.53;1.20;;;;;;;;;;5022535;28;20823;-59
2023/09/05 13:15:48;;;;;;;4.73;1.17;;;;;;;;;;5017981;28;20453;-59
2023/09/05 13:18:15;;;;;;;4.20;1.33;;;;;;;;;;5024208;28;20429;-59
2023/09/05 13:20:40;;;;;;;3.53;1.40;;;;;;;;;;5022884;28;20482;-59
2023/09/05 13:23:06;;;;;;;3.27;1.27;;;;;;;;;;5018670;28;20575;-59
2023/09/05 13:25:32;;;;;;;3.07;1.40;;;;;;;;;;5024030;28;20405;-58
2023/09/05 13:27:58;;;;;;;2.92;1.45;;;;;;;;;;5023607;28;20471;-59
2023/09/05 13:30:23;;;;;;;4.30;1.50;;;;;;;;;;5020340;28;20387;-59
2023/09/05 13:32:49;;;;;;;4.37;1.20;;;;;;;;;;5006980;28;20423;-58
2023/09/05 13:35:14;;;;;;;3.33;0.97;;;;;;;;;;4985294;28;20484;-59
2023/09/05 13:37:40;;;;;;;5.25;1.25;;;;;;;;;;4986766;28;20399;-59
2023/09/05 13:40:05;;;;;;;4.18;1.30;;;;;;;;;;4991978;28;20399;-59
2023/09/05 13:42:31;;;;;;;2.50;1.30;;;;;;;;;;4997403;28;20785;-59
2023/09/05 13:44:56;;;;;;;3.67;1.20;;;;;;;;;;4993759;28;20825;-58
2023/09/05 13:47:21;;;;;;;3.00;1.20;;;;;;;;;;4998147;28;20386;-59
2023/09/05 13:49:46;;;;;;;3.30;1.33;;;;;;;;;;4991938;28;20410;-58
2023/09/05 13:52:12;;;;;;;3.40;1.23;;;;;;;;;;4992030;28;20410;-59
2023/09/05 13:54:37;;;;;;;2.70;1.17;;;;;;;;;;4994999;28;20419;-59
2023/09/05 13:57:03;;;;;;;2.43;1.10;;;;;;;;;;4988568;28;20432;-59
2023/09/05 13:59:30;;;;;;;3.72;1.10;;;;;;;;;;4985423;28;20449;-59
2023/09/05 14:01:55;;;;;;;3.47;1.35;;;;;;;;;;4987947;28;20468;-59
2023/09/05 14:04:21;;;;;;;3.27;1.27;;;;;;;;;;4995164;28;20394;-58
2023/09/05 14:06:46;;;;;;;3.13;1.00;;;;;;;;;;5001114;28;20422;-58
2023/09/05 14:09:12;;;;;;;4.00;1.30;;;;;;;;;;4992495;28;20411;-58
2023/09/05 14:11:37;;;;;;;2.63;1.10;;;;;;;;;;4996097;28;20921;-58
2023/09/05 14:14:02;;;;;;;2.80;1.00;;;;;;;;;;4995735;28;20526;-59
2023/09/05 14:16:28;;;;;;;2.90;1.00;;;;;;;;;;4992629;28;20494;-58
2023/09/05 14:18:53;;;;;;;3.97;1.03;;;;;;;;;;4989515;28;20506;-58
2023/09/05 14:21:20;;;;;;;3.93;1.03;;;;;;;;;;4987682;28;20505;-58
2023/09/05 14:23:45;;;;;;;3.58;1.00;;;;;;;;;;4985582;28;20420;-58
2023/09/05 14:26:11;;;;;;;2.00;0.93;;;;;;;;;;4988079;28;20509;-58
2023/09/05 14:28:36;;;;;;;2.50;1.00;;;;;;;;;;4996927;28;20407;-58
2023/09/05 14:31:01;;;;;;;3.88;1.05;;;;;;;;;;4992744;28;20511;-59
2023/09/05 14:33:26;;;;;;;3.33;1.10;;;;;;;;;;5001758;28;20553;-59
2023/09/05 14:35:52;;;;;;;2.10;1.00;;;;;;;;;;4995733;28;20414;-58